Weather observations for the past three days for
Nevada County Air Park
Imperial (Metric)
Date Time (pdt) Wind (mph) Vis. (mi.) Weather Sky Cond. Temperature (ºF) Relative Humidity Wind Chill (°F) Heat Index (°F) Pressure Precipitation (in)
Air Dwpt 6 hour altimeter (in) sea level (mb) 1 hr 3 hr 6 hr
Max. Min.
02 12:35 Vrbl 5 10.00 Fair CLR 68 46.4 46% 29.96 0.0
02 12:15 Calm 10.00 Fair CLR 68 48.2 49% 29.95 0.0
02 11:55 Calm 10.00 Fair CLR 68 50 53% 29.95 0.0
02 11:35 Calm 10.00 Fair CLR 68 48.2 49% 29.95 0.0
02 11:15 Calm 10.00 Fair CLR 68 50 53% 29.95 0.0
02 10:55 Calm 10.00 Fair CLR 68 48.2 49% 29.95 0.0
02 10:35 Calm 10.00 Fair CLR 68 46.4 46% 29.95 0.0
02 10:15 Calm 10.00 Fair CLR 68 44.6 43% 29.94 0.0
02 09:55 S 8 10.00 Fair CLR 68 44.6 43% 29.94 0.0
02 09:35 Calm 10.00 Fair CLR 66.2 46.4 49% 29.94 0.0
02 09:15 Calm 10.00 Fair CLR 66.2 46.4 49% 29.94 0.0
02 08:55 Calm 10.00 Fair CLR 66.2 46.4 49% 29.94 0.0
02 08:35 Calm 10.00 Fair CLR 66.2 44.6 46% 29.94 0.0
02 08:15 Calm 10.00 Fair CLR 62.6 46.4 56% 29.94 0.0
02 07:55 Calm 10.00 Fair CLR 64.4 42.8 46% 29.94 0.0
02 07:35 Calm 10.00 Fair CLR 64.4 42.8 46% 29.93 0.0
02 07:15 Calm 10.00 Fair CLR 62.6 42.8 49% 29.93 0.0
02 06:55 Calm 10.00 Fair CLR 60.8 42.8 52% 29.93 0.0
02 06:35 Calm 10.00 Fair CLR 60.8 41 48% 29.92 0.0
02 06:15 Calm 10.00 Fair CLR 62.6 41 45% 29.92 0.0
02 05:55 Calm 10.00 Fair CLR 62.6 41 45% 29.91 0.0
02 05:35 E 7 10.00 Fair CLR 62.6 41 45% 29.91 0.0
02 05:15 E 8 10.00 Fair CLR 62.6 41 45% 29.91 0.0
02 04:55 E 7 10.00 A Few Clouds FEW050 62.6 41 45% 29.91 0.0
02 04:35 E 7 10.00 A Few Clouds FEW050 FEW055 62.6 41 45% 29.92 0.0
02 04:15 E 7 10.00 A Few Clouds FEW050 62.6 42.8 49% 29.92 0.0
02 03:55 E 7 10.00 Fair CLR 62.6 42.8 49% 29.92 0.0
02 03:35 E 5 10.00 Fair CLR 62.6 42.8 49% 29.93 0.0
02 03:15 E 7 10.00 Fair CLR 62.6 44.6 52% 29.93 0.0
02 02:55 E 6 10.00 Fair CLR 62.6 44.6 52% 29.93 0.0
02 02:35 E 6 10.00 Fair CLR 62.6 44.6 52% 29.94 0.0
02 02:15 E 6 10.00 Fair CLR 62.6 44.6 52% 29.94 0.0
02 01:55 Calm 10.00 Fair CLR 62.6 46.4 56% 29.95 0.0
02 01:35 SE 5 10.00 Fair CLR 62.6 46.4 56% 29.95 0.0
02 01:15 E 6 10.00 Fair CLR 62.6 46.4 56% 29.95 0.0
02 00:55 Calm 10.00 Fair CLR 62.6 46.4 56% 29.96 0.0
02 00:35 E 6 10.00 Fair CLR 62.6 46.4 56% 29.96 0.0
02 00:15 Calm 10.00 Fair CLR 62.6 48.2 60% 29.96 0.0
01 23:55 E 5 10.00 Fair CLR 62.6 48.2 60% 29.96 0.0
01 23:35 SE 5 10.00 Fair CLR 62.6 48.2 60% 29.96 0.0
01 23:15 Calm 10.00 Fair CLR 62.6 48.2 60% 29.96 0.0
01 22:55 Calm 10.00 Fair CLR 62.6 46.4 56% 29.97 0.0
01 22:35 Calm 10.00 Fair CLR 62.6 48.2 60% 29.97 0.0
01 22:15 Calm 10.00 Fair CLR 60.8 48.2 63% 29.97 0.0
01 21:55 Calm 10.00 Fair CLR 62.6 48.2 60% 29.97 0.0
01 21:35 Calm 10.00 Fair CLR 60.8 50 68% 29.97 0.0
01 21:15 Calm 10.00 Fair CLR 62.6 50 64% 29.96 0.0
01 20:55 Calm 10.00 Fair CLR 64.4 48.2 56% 29.95 0.0
01 20:35 Calm 10.00 Fair CLR 64.4 48.2 56% 29.95 0.0
01 20:15 Calm 10.00 Fair CLR 64.4 48.2 56% 29.95 0.0
01 19:55 Calm 10.00 Fair CLR 66.2 48.2 52% 29.95 0.0
01 19:35 Calm 10.00 Fair CLR 66.2 46.4 49% 29.94 0.0
01 19:15 Calm 10.00 Fair CLR 66.2 46.4 49% 29.94 0.0
01 18:55 Calm 10.00 Fair CLR 68 46.4 46% 29.95 0.0
01 18:35 Calm 10.00 Fair CLR 69.8 46.4 43% 29.95 0.0
01 18:15 Calm 10.00 Fair CLR 69.8 46.4 43% 29.95 0.0
01 17:55 Calm 10.00 Fair CLR 69.8 42.8 38% 29.95 0.0
01 17:35 Calm 10.00 Fair CLR 71.6 42.8 36% 29.95 0.0
01 17:15 Calm 10.00 Fair CLR 71.6 41 33% 29.96 0.0
01 16:55 Calm 10.00 Fair CLR 71.6 41 33% 29.96 0.0
01 16:35 Calm 10.00 Fair CLR 71.6 42.8 36% 29.97 0.0
01 16:15 W 3 10.00 Fair CLR 71.6 41 33% 29.97 0.0
01 15:55 Vrbl 5 10.00 Fair CLR 73.4 42.8 33% 29.97 0.0
01 15:35 Calm 10.00 Fair CLR 73.4 42.8 33% 29.98 0.0
01 15:15 Vrbl 5 10.00 Fair CLR 73.4 39.2 29% 29.99 0.0
01 14:55 SW 8 G 14 10.00 Fair CLR 71.6 41 33% 29.99 0.0
01 14:35 SW 6 10.00 Fair CLR 71.6 42.8 36% 29.99 0.0
01 14:15 W 5 10.00 Fair CLR 73.4 46.4 38% 29.99 0.0
01 13:55 Vrbl 5 G 13 10.00 Fair CLR 73.4 41 31% 29.99 0.0
01 13:35 Vrbl 6 G 12 10.00 Fair CLR 71.6 44.6 38% 29.99 0.0
01 13:15 SW 7 10.00 Fair CLR 73.4 37.4 27% 30 0.0
01 12:55 Vrbl 6 10.00 Fair CLR 73.4 41 31% 30 0.0
01 12:35 W 8 10.00 Fair CLR 73.4 48.2 41% 30 0.0
01 12:15 W 12 10.00 Fair CLR 73.4 48.2 41% 30 0.0
01 11:55 Vrbl 3 10.00 Fair CLR 75.2 33.8 22% 76 30.01 0.0
01 11:35 Calm 10.00 Fair CLR 75.2 33.8 22% 76 30.01 0.0
01 11:15 Calm 10.00 Fair CLR 75.2 37.4 25% 77 30.01 0.0
01 10:55 SW 6 10.00 Fair CLR 73.4 35.6 25% 30.01 0.0
01 10:35 Calm 10.00 Fair CLR 73.4 37.4 27% 30.01 0.0
01 10:15 Calm 10.00 Fair CLR 73.4 35.6 25% 30.01 0.0
01 09:55 Calm 10.00 Fair CLR 71.6 32 23% 30.01 0.0
01 09:35 Calm 10.00 Fair CLR 71.6 33.8 25% 30.01 0.0
01 09:15 Calm 10.00 Fair CLR 69.8 35.6 29% 30.01 0.0
01 08:55 Calm 10.00 Fair CLR 68 32 26% 30.01 0.0
01 08:35 Calm 10.00 Fair CLR 66.2 30.2 26% 30 0.0
01 08:15 Calm 10.00 Fair CLR 66.2 33.8 30% 30 0.0
01 07:55 Calm 10.00 Fair CLR 64.4 33.8 32% 30 0.0
01 07:35 Calm 10.00 Fair CLR 64.4 28.4 26% 30 0.0
01 07:15 E 5 10.00 Fair CLR 64.4 26.6 24% 29.99 0.0
01 06:55 E 6 10.00 Fair CLR 64.4 24.8 22% 29.99 0.0
01 06:35 Calm 10.00 Fair CLR 62.6 26.6 25% 29.98 0.0
01 06:15 Calm 10.00 Fair CLR 59 30.2 34% 29.98 0.0
01 05:55 Calm 10.00 Fair CLR 62.6 30.2 30% 29.97 0.0
01 05:35 Calm 10.00 Fair CLR 60.8 32 34% 29.97 0.0
01 05:15 Calm 10.00 Fair CLR 62.6 33.8 34% 29.97 0.0
01 04:55 Calm 10.00 Fair CLR 59 39.2 48% 29.97 0.0
01 04:35 Calm 10.00 Fair CLR 60.8 39.2 45% 29.97 0.0
01 04:15 Calm 10.00 A Few Clouds FEW044 59 39.2 48% 29.97 0.0
01 03:55 Calm 10.00 Fair CLR 59 39.2 48% 29.97 0.0
01 03:35 Calm 10.00 Fair CLR 60.8 39.2 45% 29.97 0.0
01 03:15 Calm 10.00 Fair CLR 59 44.6 59% 29.97 0.0
01 02:55 Calm 10.00 Fair CLR 59 42.8 55% 29.97 0.0
01 02:35 Calm 10.00 Fair CLR 59 41 51% 29.97 0.0
01 02:15 Calm 10.00 Fair CLR 60.8 39.2 45% 29.98 0.0
01 01:55 Calm 10.00 Fair CLR 57.2 41 55% 29.98 0.0
01 01:35 Calm 10.00 Fair CLR 59 41 51% 29.98 0.0
01 01:15 Calm 10.00 Fair CLR 60.8 39.2 45% 29.98 0.0
01 00:55 Calm 10.00 Fair CLR 60.8 39.2 45% 29.98 0.0
01 00:35 Calm 10.00 Fair CLR 60.8 41 48% 29.98 0.0
01 00:15 Calm 10.00 A Few Clouds FEW048 60.8 41 48% 29.98 0.0
30 23:55 Calm 10.00 Fair CLR 59 44.6 59% 29.98 0.0
30 23:35 Calm 10.00 Fair CLR 60.8 46.4 59% 29.98 0.0
30 23:15 Calm 10.00 Fair CLR 59 48.2 68% 29.98 0.0
30 22:55 Calm 10.00 Fair CLR 60.8 48.2 63% 29.98 0.0
30 22:35 Calm 10.00 Fair CLR 62.6 48.2 60% 29.99 0.0
30 22:15 Calm 10.00 Fair CLR 62.6 48.2 60% 29.99 0.0
30 21:55 Calm 10.00 Fair CLR 62.6 48.2 60% 29.99 0.0
30 21:35 Calm 10.00 Fair CLR 62.6 48.2 60% 29.99 0.0
30 21:15 Calm 10.00 Fair CLR 62.6 48.2 60% 29.98 0.0
30 20:55 Calm 10.00 Fair CLR 62.6 48.2 60% 29.97 0.0
30 20:35 Calm 10.00 Fair CLR 64.4 48.2 56% 29.97 0.0
30 20:15 Calm 10.00 Fair CLR 66.2 48.2 52% 29.97 0.0
30 19:55 Calm 10.00 Fair CLR 68 46.4 46% 29.96 0.0
30 19:35 W 6 10.00 Fair CLR 68 46.4 46% 29.96 0.0
30 19:15 Calm 10.00 Fair CLR 69.8 46.4 43% 29.95 0.0
30 18:55 W 5 10.00 Fair CLR 69.8 44.6 40% 29.95 0.0
30 18:35 Calm 10.00 Fair CLR 69.8 44.6 40% 29.95 0.0
30 18:15 Calm 10.00 Fair CLR 71.6 44.6 38% 29.96 0.0
30 17:55 NW 9 10.00 Fair CLR 71.6 46.4 41% 29.95 0.0
30 17:35 W 8 10.00 Fair CLR 71.6 44.6 38% 29.95 0.0
30 17:15 W 9 10.00 Fair CLR 71.6 44.6 38% 29.95 0.0
30 16:55 W 9 10.00 Fair CLR 71.6 42.8 36% 29.96 0.0
30 16:35 W 9 G 15 10.00 Fair CLR 71.6 39.2 31% 29.96 0.0
30 16:15 NW 12 10.00 Fair CLR 71.6 39.2 31% 29.96 0.0
30 15:55 W 7 G 15 10.00 Fair CLR 73.4 39.2 29% 29.96 0.0
30 15:35 W 8 10.00 Fair CLR 73.4 41 31% 29.97 0.0
30 15:15 W 9 10.00 Fair CLR 71.6 41 33% 29.97 0.0
30 14:55 W 10 10.00 Fair CLR 73.4 41 31% 29.97 0.0
30 14:35 W 9 10.00 Fair CLR 71.6 44.6 38% 29.98 0.0
30 14:15 W 8 10.00 Fair CLR 73.4 44.6 36% 29.97 0.0
30 13:55 Vrbl 7 G 13 10.00 Fair CLR 73.4 42.8 33% 29.98 0.0
30 13:35 W 8 10.00 Fair CLR 71.6 44.6 38% 29.97 0.0
30 13:15 W 8 10.00 Fair CLR 71.6 42.8 36% 29.98 0.0
30 12:55 W 6 10.00 Fair CLR 71.6 42.8 36% 29.98 0.0
30 12:35 W 9 10.00 Fair CLR 71.6 42.8 36% 29.99 0.0
30 12:15 W 9 10.00 Fair CLR 71.6 44.6 38% 29.99 0.0
30 11:55 W 8 10.00 Fair CLR 71.6 44.6 38% 29.99 0.0
30 11:35 Calm 10.00 Fair CLR 69.8 42.8 38% 29.99 0.0
30 11:15 Calm 10.00 Fair CLR 69.8 41 35% 30 0.0
30 10:55 Calm 10.00 Fair CLR 69.8 41 35% 30 0.0
30 10:35 Calm 10.00 Fair CLR 68 41 38% 30 0.0
30 10:15 NW 5 10.00 Fair CLR 68 37.4 33% 30 0.0
30 09:55 Calm 10.00 Fair CLR 66.2 39.2 37% 30 0.0
30 09:35 Calm 10.00 Fair CLR 66.2 35.6 32% 30 0.0
30 09:15 Calm 10.00 Fair CLR 64.4 37.4 37% 29.99 0.0
30 08:55 Calm 10.00 Fair CLR 64.4 33.8 32% 29.99 0.0
30 08:35 Calm 10.00 Fair CLR 64.4 37.4 37% 29.99 0.0
30 08:15 Calm 10.00 Fair CLR 62.6 39.2 42% 29.99 0.0
30 07:55 Calm 10.00 Fair CLR 60.8 42.8 52% 29.99 0.0
30 07:35 Calm 10.00 Fair CLR 59 41 51% 29.99 0.0
30 07:15 Calm 10.00 Fair CLR 59 39.2 48% 29.99 0.0
30 06:55 Calm 10.00 Fair CLR 57.2 39.2 51% 29.99 0.0
30 06:35 Calm 10.00 Fair CLR 55.4 37.4 51% 29.99 0.0
30 06:15 Calm 10.00 Fair CLR 55.4 37.4 51% 29.98 0.0
30 05:55 Calm 10.00 Fair CLR 53.6 39.2 58% 29.98 0.0
30 05:35 Calm 10.00 Fair CLR 55.4 41 59% 29.98 0.0
30 05:15 Calm 10.00 Fair CLR 55.4 42.8 63% 29.98 0.0
30 04:55 Calm 10.00 Fair CLR 53.6 42.8 67% 29.98 0.0
30 04:35 Calm 10.00 Fair CLR 55.4 42.8 63% 29.99 0.0
30 04:15 Calm 10.00 Fair CLR 55.4 42.8 63% 29.99 0.0
30 03:55 Calm 10.00 Fair CLR 53.6 42.8 67% 30 0.0
30 03:35 Calm 10.00 Fair CLR 53.6 42.8 67% 30 0.0
30 03:15 Calm 10.00 Fair CLR 51.8 44.6 77% 30.01 0.0
30 02:55 Calm 10.00 Fair CLR 55.4 42.8 63% 30.01 0.0
30 02:35 Calm 10.00 Fair CLR 55.4 42.8 63% 30.02 0.0
30 02:15 Calm 10.00 Fair CLR 55.4 42.8 63% 30.02 0.0
30 01:55 Calm 10.00 Fair CLR 55.4 42.8 63% 30.03 0.0
30 01:35 Calm 10.00 A Few Clouds FEW045 55.4 42.8 63% 30.04 0.0
30 01:15 Calm 10.00 Fair CLR 55.4 44.6 67% 30.04 0.0
30 00:55 Calm 10.00 Fair CLR 55.4 42.8 63% 30.04 0.0
30 00:35 Calm 10.00 Fair CLR 55.4 42.8 63% 30.04 0.0
30 00:15 Calm 10.00 Fair CLR 55.4 42.8 63% 30.04 0.0
29 23:55 Calm 10.00 Fair CLR 55.4 42.8 63% 30.04 0.0
29 23:35 Calm 10.00 Fair CLR 55.4 42.8 63% 30.04 0.0
29 23:15 Calm 10.00 Fair CLR 55.4 42.8 63% 30.04 0.0
29 22:55 Calm 10.00 Fair CLR 57.2 42.8 59% 30.04 0.0
29 22:35 Calm 10.00 Fair CLR 59 42.8 55% 30.04 0.0
29 22:15 Calm 10.00 Fair CLR 57.2 42.8 59% 30.04 0.0
29 21:55 Calm 10.00 Fair CLR 57.2 42.8 59% 30.04 0.0
29 21:35 Calm 10.00 Fair CLR 57.2 44.6 63% 30.03 0.0
29 21:15 Calm 10.00 Fair CLR 59 42.8 55% 30.04 0.0
29 20:55 Calm 10.00 Fair CLR 57.2 44.6 63% 30.03 0.0
29 20:35 Calm 10.00 Fair CLR 59 44.6 59% 30.03 0.0
29 20:15 Calm 10.00 Fair CLR 60.8 44.6 55% 30.03 0.0
29 19:55 Calm 10.00 Fair CLR 62.6 42.8 49% 30.02 0.0
29 19:35 Calm 10.00 Fair CLR 64.4 42.8 46% 30.02 0.0
29 19:15 W 5 10.00 Fair CLR 64.4 41 43% 30.02 0.0
29 18:55 Calm 10.00 Fair CLR 66.2 39.2 37% 30.02 0.0
29 18:35 NW 7 10.00 Fair CLR 66.2 39.2 37% 30.03 0.0
29 18:15 Calm 10.00 Fair CLR 66.2 39.2 37% 30.03 0.0
29 17:55 Calm 10.00 Fair CLR 66.2 37.4 35% 30.03 0.0
29 17:35 Calm 10.00 Fair CLR 66.2 39.2 37% 30.03 0.0
29 17:15 Vrbl 7 10.00 Fair CLR 66.2 41 40% 30.04 0.0
29 16:55 NW 6 10.00 Fair CLR 66.2 42.8 43% 30.04 0.0
29 16:35 Calm 10.00 Fair CLR 66.2 42.8 43% 30.04 0.0
29 16:15 W 9 10.00 Fair CLR 66.2 42.8 43% 30.05 0.0
29 15:55 W 9 G 15 10.00 Fair CLR 66.2 42.8 43% 30.05 0.0
29 15:35 SW 8 10.00 Fair CLR 66.2 42.8 43% 30.06 0.0
29 15:15 W 8 G 15 10.00 Fair CLR 66.2 42.8 43% 30.06 0.0
29 14:55 W 8 G 16 10.00 Fair CLR 66.2 44.6 46% 30.07 0.0
29 14:35 W 10 10.00 Fair CLR 66.2 42.8 43% 30.06 0.0
29 14:15 W 8 G 14 10.00 Fair CLR 66.2 42.8 43% 30.06 0.0
29 13:55 W 10 10.00 Fair CLR 66.2 42.8 43% 30.06 0.0
29 13:35 W 8 G 14 10.00 Fair CLR 66.2 42.8 43% 30.06 0.0
29 13:15 W 9 10.00 Fair CLR 68 41 38% 30.06 0.0
29 12:55 W 8 G 15 10.00 Fair CLR 66.2 41 40% 30.07 0.0
Date Time (pdt) Wind (mph) Vis. (mi.) Weather Sky Cond. Air Dwpt Max. Min. Relative Humidity Wind Chill (°F) Heat Index (°F) altimeter (in) sea level (mb) 1 hr 3 hr 6 hr
6 hour
Temperature (ºF) Pressure Precipitation (in)